Time;durP1;ratioP1;P1;durP2;ratioP2;P2;SDS_P1;SDS_P2;PMS_P1;PMS_P2;Temp;Humidity;BMP_temperature;BMP_pressure;BME280_temperature;BME280_humidity;BME280_pressure;Samples;Min_cycle;Max_cycle;Signal;HPM_P1;HPM_P2
2023/08/20 00:01:17;;;;;;;8.70;2.67;;;24.00;99.90;;;;;;5067651;28;20199;-31
2023/08/20 00:03:47;;;;;;;7.47;2.60;;;24.00;99.90;;;;;;5086204;28;20318;-32
2023/08/20 00:06:14;;;;;;;8.05;2.15;;;24.00;99.90;;;;;;5070789;28;20281;-32
2023/08/20 00:08:42;;;;;;;5.60;2.20;;;24.00;99.90;;;;;;5070595;28;20207;-31
2023/08/20 00:11:19;;;;;;;6.45;1.98;;;24.00;99.90;;;;;;5070698;28;20237;-31
2023/08/20 00:13:53;;;;;;;6.85;2.22;;;24.00;99.90;;;;;;5070589;28;20210;-31
2023/08/20 00:16:23;;;;;;;6.43;2.15;;;24.00;99.90;;;;;;5070853;28;20226;-32
2023/08/20 00:18:51;;;;;;;8.82;2.42;;;24.00;99.90;;;;;;5089053;28;20211;-31
2023/08/20 00:21:21;;;;;;;8.35;2.45;;;24.00;99.90;;;;;;5070669;28;20600;-31
2023/08/20 00:23:48;;;;;;;6.38;2.85;;;24.00;99.90;;;;;;5088694;28;20226;-31
2023/08/20 00:26:19;;;;;;;8.15;2.20;;;24.00;99.90;;;;;;5070570;28;20552;-31
2023/08/20 00:28:46;;;;;;;6.50;2.47;;;23.90;99.90;;;;;;5070161;28;20199;-32
2023/08/20 00:31:29;;;;;;;9.77;2.65;;;23.90;99.90;;;;;;5071316;28;20198;-31
2023/08/20 00:33:56;;;;;;;7.75;2.33;;;24.00;99.90;;;;;;5088362;28;20201;-32
2023/08/20 00:36:33;;;;;;;6.50;2.55;;;23.90;99.90;;;;;;5071814;28;20210;-31
2023/08/20 00:39:05;;;;;;;6.47;2.10;;;24.00;99.90;;;;;;5070372;28;20227;-31
2023/08/20 00:41:35;;;;;;;6.55;2.28;;;23.90;99.90;;;;;;5070709;28;20259;-31
2023/08/20 00:44:05;;;;;;;8.45;2.30;;;23.90;99.90;;;;;;5053455;28;20639;-31
2023/08/20 00:46:32;;;;;;;5.90;2.13;;;23.90;99.90;;;;;;5088317;28;20257;-31
2023/08/20 00:49:02;;;;;;;6.05;2.15;;;23.90;99.90;;;;;;5088179;28;20719;-31
2023/08/20 00:51:33;;;;;;;6.93;2.28;;;23.90;99.90;;;;;;5070086;28;20202;-31
2023/08/20 00:54:03;;;;;;;6.25;2.33;;;23.90;99.90;;;;;;5088755;28;20996;-31
2023/08/20 00:56:31;;;;;;;7.88;2.28;;;23.80;99.90;;;;;;5088401;28;20210;-31
2023/08/20 00:59:05;;;;;;;8.80;2.35;;;23.90;99.90;;;;;;5052202;28;20215;-32
2023/08/20 01:01:35;;;;;;;9.38;2.40;;;23.80;99.90;;;;;;5048060;28;20219;-31
2023/08/20 01:04:05;;;;;;;7.28;2.40;;;23.80;99.90;;;;;;5053358;28;20237;-32
2023/08/20 01:06:32;;;;;;;7.50;2.10;;;23.80;99.90;;;;;;5062656;28;20670;-31
2023/08/20 01:09:11;;;;;;;6.47;2.22;;;23.80;99.90;;;;;;5057767;28;20211;-31
2023/08/20 01:11:52;;;;;;;8.88;2.50;;;23.70;99.90;;;;;;5067214;28;20297;-32
2023/08/20 01:14:22;;;;;;;8.57;2.38;;;23.70;99.90;;;;;;5066032;28;20549;-32
2023/08/20 01:16:49;;;;;;;9.00;2.63;;;23.70;99.90;;;;;;5044435;28;20616;-32
2023/08/20 01:19:26;;;;;;;6.85;2.40;;;23.60;99.90;;;;;;5059349;28;20645;-32
2023/08/20 01:21:56;;;;;;;4.65;1.83;;;23.70;99.90;;;;;;5049203;28;20277;-32
2023/08/20 01:24:35;;;;;;;7.45;1.92;;;23.60;99.90;;;;;;5067093;28;20227;-32
2023/08/20 01:27:21;;;;;;;5.57;2.00;;;23.60;99.90;;;;;;5066774;28;20203;-32
2023/08/20 01:29:49;;;;;;;8.02;2.70;;;23.60;99.90;;;;;;5065900;28;20210;-32
2023/08/20 01:32:20;;;;;;;7.93;2.05;;;23.60;99.90;;;;;;5048476;28;20282;-32
2023/08/20 01:34:48;;;;;;;4.45;1.85;;;23.60;99.90;;;;;;5065635;28;20191;-32
2023/08/20 01:37:20;;;;;;;6.03;2.38;;;23.60;99.90;;;;;;5067165;28;20469;-32
2023/08/20 01:39:50;;;;;;;6.40;2.47;;;23.60;99.90;;;;;;5067001;28;20203;-32
2023/08/20 01:42:20;;;;;;;7.95;2.35;;;23.60;99.90;;;;;;5066752;28;20226;-32
2023/08/20 01:44:47;;;;;;;5.32;2.22;;;23.60;99.90;;;;;;5048636;28;20223;-33
2023/08/20 01:47:15;;;;;;;5.85;2.38;;;23.60;99.90;;;;;;5067041;28;20199;-32
2023/08/20 01:49:45;;;;;;;5.05;2.55;;;23.60;99.90;;;;;;5032625;28;20215;-32
2023/08/20 01:52:14;;;;;;;6.53;2.20;;;23.60;99.90;;;;;;5065716;28;20692;-32
2023/08/20 01:54:44;;;;;;;6.75;2.40;;;23.60;99.90;;;;;;5065204;28;20564;-32
2023/08/20 01:57:15;;;;;;;4.90;2.25;;;23.70;99.90;;;;;;5066656;28;20232;-32
2023/08/20 01:59:45;;;;;;;8.75;2.47;;;23.70;99.90;;;;;;5032285;28;20207;-32
2023/08/20 02:02:12;;;;;;;5.28;2.15;;;23.70;99.90;;;;;;5048987;28;20302;-32
2023/08/20 02:04:39;;;;;;;7.70;2.28;;;23.70;99.90;;;;;;5048293;28;20314;-32
2023/08/20 02:07:09;;;;;;;6.40;2.38;;;23.70;99.90;;;;;;5067329;28;20188;-33
2023/08/20 02:09:39;;;;;;;5.97;1.88;;;23.70;99.90;;;;;;5048767;28;20211;-32
2023/08/20 02:12:06;;;;;;;4.90;2.30;;;23.70;99.90;;;;;;5048431;28;20204;-32
2023/08/20 02:14:36;;;;;;;4.10;2.05;;;23.70;99.90;;;;;;5032002;28;20206;-32
2023/08/20 02:17:04;;;;;;;5.35;1.98;;;23.70;99.90;;;;;;5048208;28;20200;-33
2023/08/20 02:19:33;;;;;;;7.88;2.30;;;23.70;99.90;;;;;;5048100;28;20568;-32
2023/08/20 02:22:05;;;;;;;7.82;2.42;;;23.80;99.90;;;;;;5066146;28;20306;-33
2023/08/20 02:24:32;;;;;;;6.65;2.58;;;23.80;99.90;;;;;;5048201;28;20280;-33
2023/08/20 02:27:02;;;;;;;8.77;2.40;;;23.80;99.90;;;;;;5048698;28;20223;-32
2023/08/20 02:29:30;;;;;;;7.22;2.15;;;23.80;99.90;;;;;;5048610;28;20773;-33
2023/08/20 02:32:00;;;;;;;8.15;2.70;;;23.70;99.90;;;;;;5066220;28;20207;-33
2023/08/20 02:34:27;;;;;;;7.80;2.50;;;23.70;99.90;;;;;;5048298;28;20553;-32
2023/08/20 02:36:54;;;;;;;6.22;2.60;;;23.70;99.90;;;;;;5047888;28;20302;-33
2023/08/20 02:39:21;;;;;;;7.22;2.38;;;23.70;99.90;;;;;;5048061;28;20253;-32
2023/08/20 02:41:49;;;;;;;9.82;2.58;;;23.70;99.90;;;;;;5066375;28;20638;-32
2023/08/20 02:44:18;;;;;;;10.00;2.50;;;23.70;99.90;;;;;;5065402;28;20231;-32
2023/08/20 02:46:45;;;;;;;8.98;2.85;;;23.70;99.90;;;;;;5065990;28;20285;-32
2023/08/20 02:49:16;;;;;;;7.72;2.60;;;23.70;99.90;;;;;;5048194;28;20261;-32
2023/08/20 02:51:43;;;;;;;8.88;2.45;;;23.60;99.90;;;;;;5065967;28;20203;-31
2023/08/20 02:54:15;;;;;;;6.72;2.42;;;23.60;99.90;;;;;;5065891;28;20281;-32
2023/08/20 02:56:48;;;;;;;9.30;2.65;;;23.60;99.90;;;;;;5065389;28;20195;-31
2023/08/20 02:59:17;;;;;;;6.80;2.28;;;23.50;99.90;;;;;;5047514;28;20257;-32
2023/08/20 03:01:45;;;;;;;7.93;2.30;;;23.50;99.90;;;;;;5064160;28;20664;-31
2023/08/20 03:04:14;;;;;;;9.73;2.42;;;23.40;99.90;;;;;;5065790;28;20231;-32
2023/08/20 03:06:42;;;;;;;8.63;2.30;;;23.30;99.90;;;;;;5047525;28;20276;-32
2023/08/20 03:09:14;;;;;;;8.32;2.70;;;23.30;99.90;;;;;;5047385;28;20421;-32
2023/08/20 03:11:43;;;;;;;8.35;2.42;;;23.30;99.90;;;;;;5048053;28;20623;-31
2023/08/20 03:14:12;;;;;;;8.15;2.65;;;23.20;99.90;;;;;;5047399;28;20261;-32
2023/08/20 03:16:47;;;;;;;6.65;2.30;;;23.20;99.90;;;;;;5065852;28;20645;-32
2023/08/20 03:19:19;;;;;;;5.95;2.30;;;23.10;99.90;;;;;;5048062;28;20256;-32
2023/08/20 03:21:52;;;;;;;6.97;2.65;;;23.10;99.90;;;;;;5065683;28;20341;-32
2023/08/20 03:24:22;;;;;;;6.80;2.45;;;23.00;99.90;;;;;;5065674;28;20239;-32
2023/08/20 03:26:49;;;;;;;7.38;2.33;;;23.00;99.90;;;;;;5065373;28;20261;-32
2023/08/20 03:29:16;;;;;;;6.70;2.55;;;23.00;99.90;;;;;;5065316;28;20221;-32
2023/08/20 03:31:43;;;;;;;7.20;2.75;;;23.00;99.90;;;;;;5031223;28;20203;-32
2023/08/20 03:34:13;;;;;;;7.88;2.45;;;22.90;99.90;;;;;;5047699;28;20207;-32
2023/08/20 03:36:45;;;;;;;6.38;2.60;;;22.90;99.90;;;;;;5065103;28;20204;-32
2023/08/20 03:39:15;;;;;;;7.28;2.60;;;22.90;99.90;;;;;;5066787;28;20491;-32
2023/08/20 03:41:42;;;;;;;7.85;2.70;;;22.90;99.90;;;;;;5051189;28;20203;-32
2023/08/20 03:44:11;;;;;;;6.55;2.72;;;22.80;99.90;;;;;;5034578;28;20239;-32
2023/08/20 03:46:43;;;;;;;6.15;2.28;;;22.80;99.90;;;;;;5069973;28;20212;-31
2023/08/20 03:49:11;;;;;;;5.93;2.17;;;22.70;99.90;;;;;;5051217;28;20221;-32
2023/08/20 03:51:38;;;;;;;8.20;2.45;;;22.70;99.90;;;;;;5069162;28;20207;-32
2023/08/20 03:54:05;;;;;;;6.75;2.30;;;22.70;99.90;;;;;;5069427;28;20572;-32
2023/08/20 03:56:46;;;;;;;7.20;2.50;;;22.60;99.90;;;;;;5069068;28;20305;-31
2023/08/20 03:59:23;;;;;;;7.43;2.40;;;22.60;99.90;;;;;;5068945;28;20235;-32
2023/08/20 04:01:51;;;;;;;7.40;2.72;;;22.50;99.90;;;;;;5068964;28;20707;-33
2023/08/20 04:04:21;;;;;;;9.75;2.67;;;22.50;99.90;;;;;;5068628;28;20228;-33
2023/08/20 04:06:48;;;;;;;7.20;2.42;;;22.50;99.90;;;;;;5050554;28;20200;-32
2023/08/20 04:09:16;;;;;;;7.70;2.50;;;22.50;99.90;;;;;;5050720;28;20200;-32
2023/08/20 04:11:46;;;;;;;6.70;2.95;;;22.40;99.90;;;;;;5068743;28;20578;-32
2023/08/20 04:14:21;;;;;;;6.13;2.90;;;22.40;99.90;;;;;;5035263;28;20255;-33
2023/08/20 04:16:53;;;;;;;8.23;2.58;;;22.30;99.90;;;;;;5068838;28;20268;-33
2023/08/20 04:19:20;;;;;;;6.13;2.30;;;22.30;99.90;;;;;;5050827;28;20203;-31
2023/08/20 04:21:47;;;;;;;6.18;2.40;;;22.30;99.90;;;;;;5050494;28;20230;-31
2023/08/20 04:24:19;;;;;;;7.38;2.45;;;22.20;99.90;;;;;;5050756;28;20211;-31
2023/08/20 04:26:49;;;;;;;5.28;2.85;;;22.20;99.90;;;;;;5068310;28;20688;-31
2023/08/20 04:29:23;;;;;;;7.18;2.53;;;22.20;99.90;;;;;;5050653;28;20199;-31
2023/08/20 04:31:50;;;;;;;6.65;2.63;;;22.10;99.90;;;;;;5050956;28;20195;-31
2023/08/20 04:34:22;;;;;;;7.80;2.47;;;22.10;99.90;;;;;;5068440;28;20230;-31
2023/08/20 04:36:49;;;;;;;4.40;2.40;;;22.10;99.90;;;;;;5068211;28;20212;-32
2023/08/20 04:39:19;;;;;;;7.55;2.65;;;22.00;99.90;;;;;;5068319;28;20199;-31
2023/08/20 04:41:52;;;;;;;6.22;2.67;;;22.00;99.90;;;;;;5068154;28;20200;-31
2023/08/20 04:44:22;;;;;;;9.48;2.83;;;21.90;99.90;;;;;;5067719;28;20243;-32
2023/08/20 04:47:00;;;;;;;7.47;2.50;;;21.90;99.90;;;;;;5050473;28;20211;-32
2023/08/20 04:49:28;;;;;;;7.50;2.60;;;21.90;99.90;;;;;;5049885;28;20692;-32
2023/08/20 04:51:56;;;;;;;6.38;2.42;;;21.90;99.90;;;;;;5066947;28;20685;-32
2023/08/20 04:54:26;;;;;;;6.05;2.13;;;21.80;99.90;;;;;;5050161;28;20762;-32
2023/08/20 04:56:55;;;;;;;6.10;2.40;;;21.80;99.90;;;;;;5050004;28;20203;-32
2023/08/20 04:59:28;;;;;;;8.10;2.70;;;21.80;99.90;;;;;;5067529;28;20747;-32
2023/08/20 05:01:58;;;;;;;6.43;2.78;;;21.80;99.90;;;;;;5066250;28;20211;-32
2023/08/20 05:04:27;;;;;;;4.72;2.42;;;21.80;99.90;;;;;;5066226;28;20810;-24
2023/08/20 05:07:03;;;;;;;8.18;3.13;;;21.80;99.90;;;;;;5051417;28;20236;-24
2023/08/20 05:09:33;;;;;;;7.97;2.65;;;21.80;99.90;;;;;;5067834;28;20666;-25
2023/08/20 05:12:03;;;;;;;5.60;2.50;;;21.80;99.90;;;;;;5050232;28;20199;-25
2023/08/20 05:14:31;;;;;;;8.38;3.15;;;21.80;99.90;;;;;;5068041;28;20211;-24
2023/08/20 05:16:58;;;;;;;7.70;2.78;;;21.80;99.90;;;;;;5049473;28;20235;-24
2023/08/20 05:19:32;;;;;;;6.63;2.75;;;21.80;99.90;;;;;;5067615;28;20657;-24
2023/08/20 05:22:01;;;;;;;8.23;2.70;;;21.80;99.90;;;;;;5050135;28;20215;-24
2023/08/20 05:24:31;;;;;;;7.57;3.03;;;21.80;99.90;;;;;;5049160;28;20622;-24
2023/08/20 05:27:08;;;;;;;6.68;2.88;;;21.80;99.90;;;;;;5067203;28;20207;-24
2023/08/20 05:29:42;;;;;;;5.43;2.92;;;21.80;99.90;;;;;;5067012;28;20196;-24
2023/08/20 05:32:12;;;;;;;6.43;2.53;;;21.80;99.90;;;;;;5066922;28;20204;-24
2023/08/20 05:34:42;;;;;;;7.07;2.88;;;21.80;99.90;;;;;;5032500;28;20207;-24
2023/08/20 05:37:09;;;;;;;8.23;2.67;;;21.80;99.90;;;;;;5049439;28;20745;-24
2023/08/20 05:39:43;;;;;;;8.25;3.00;;;21.80;99.90;;;;;;5067306;28;20211;-24
2023/08/20 05:42:14;;;;;;;7.70;2.85;;;21.80;99.90;;;;;;5049809;28;20207;-24
2023/08/20 05:44:42;;;;;;;7.85;3.17;;;21.80;99.90;;;;;;5049430;28;20840;-24
2023/08/20 05:47:12;;;;;;;6.15;2.72;;;21.80;99.90;;;;;;5049247;28;20234;-24
2023/08/20 05:49:42;;;;;;;12.18;3.20;;;21.80;99.90;;;;;;5049356;28;20211;-24
2023/08/20 05:52:09;;;;;;;7.72;3.15;;;21.80;99.90;;;;;;5067083;28;20203;-24
2023/08/20 05:54:36;;;;;;;5.90;3.05;;;21.80;99.90;;;;;;5048529;28;20215;-24
2023/08/20 05:57:06;;;;;;;6.63;2.95;;;21.80;99.90;;;;;;5049104;28;20229;-24
2023/08/20 05:59:38;;;;;;;8.63;2.95;;;21.90;99.90;;;;;;5066565;28;20206;-24
2023/08/20 06:02:15;;;;;;;12.82;3.40;;;21.90;99.90;;;;;;5048558;28;20203;-24
2023/08/20 06:04:47;;;;;;;7.03;2.92;;;21.90;99.90;;;;;;5065368;28;20253;-25
2023/08/20 06:07:14;;;;;;;7.40;3.25;;;21.90;99.90;;;;;;5049019;28;20199;-24
2023/08/20 06:09:54;;;;;;;6.15;3.08;;;21.90;99.90;;;;;;5066847;28;20300;-24
2023/08/20 06:12:21;;;;;;;5.55;2.83;;;21.90;99.90;;;;;;5066909;28;20199;-24
2023/08/20 06:14:53;;;;;;;5.25;2.90;;;21.90;99.90;;;;;;5066378;28;20264;-24
2023/08/20 06:17:24;;;;;;;6.22;2.90;;;21.90;99.90;;;;;;5064944;28;20200;-24
2023/08/20 06:19:53;;;;;;;6.47;2.97;;;21.90;99.90;;;;;;5065293;28;20202;-24
2023/08/20 06:22:21;;;;;;;8.52;3.22;;;22.00;99.90;;;;;;5066516;28;20712;-25
2023/08/20 06:24:48;;;;;;;4.75;2.90;;;22.00;99.90;;;;;;5066640;28;20328;-24
2023/08/20 06:27:15;;;;;;;7.20;3.20;;;22.10;99.90;;;;;;5047918;28;20200;-24
2023/08/20 06:29:44;;;;;;;8.18;3.00;;;22.10;99.90;;;;;;5066020;28;20286;-24
2023/08/20 06:32:17;;;;;;;7.43;3.08;;;22.10;99.90;;;;;;5066039;28;20207;-24
2023/08/20 06:34:44;;;;;;;7.60;3.00;;;22.10;99.90;;;;;;5047962;28;20786;-25
2023/08/20 06:37:11;;;;;;;8.70;3.13;;;22.20;99.90;;;;;;5047807;28;20211;-24
2023/08/20 06:39:43;;;;;;;9.48;3.17;;;22.20;99.90;;;;;;5047956;28;20211;-24
2023/08/20 06:42:13;;;;;;;6.47;2.72;;;22.20;99.90;;;;;;5065932;28;20249;-24
2023/08/20 06:44:45;;;;;;;7.05;2.88;;;22.20;99.90;;;;;;5065731;28;20246;-24
2023/08/20 06:47:19;;;;;;;5.93;2.72;;;22.20;99.90;;;;;;5047698;28;20626;-25
2023/08/20 06:49:54;;;;;;;8.00;3.25;;;22.30;99.90;;;;;;5048748;28;20207;-24
2023/08/20 06:52:24;;;;;;;5.22;2.42;;;22.30;99.90;;;;;;5048045;28;20219;-24
2023/08/20 06:54:56;;;;;;;7.30;3.03;;;22.30;99.90;;;;;;5065901;28;20195;-24
2023/08/20 06:57:26;;;;;;;6.70;2.65;;;22.40;99.90;;;;;;5066364;28;20211;-24
2023/08/20 06:59:53;;;;;;;8.57;2.78;;;22.40;99.90;;;;;;5048029;28;20618;-24
2023/08/20 07:02:23;;;;;;;5.88;2.60;;;22.50;99.90;;;;;;5048050;28;20211;-25
2023/08/20 07:04:50;;;;;;;7.55;3.15;;;22.50;99.90;;;;;;5047411;28;20227;-24
2023/08/20 07:07:19;;;;;;;8.50;2.97;;;22.50;99.90;;;;;;5065315;28;20618;-24
2023/08/20 07:09:46;;;;;;;5.13;2.40;;;22.60;99.90;;;;;;5065418;28;20208;-25
2023/08/20 07:12:16;;;;;;;5.47;2.25;;;22.60;99.90;;;;;;5047876;28;20188;-24
2023/08/20 07:14:43;;;;;;;5.13;2.05;;;22.60;99.90;;;;;;5064996;28;20203;-24
2023/08/20 07:17:10;;;;;;;7.13;1.80;;;22.70;99.90;;;;;;5046916;28;20556;-25
2023/08/20 07:19:38;;;;;;;5.40;2.10;;;22.70;99.90;;;;;;5047535;28;20214;-24
2023/08/20 07:22:08;;;;;;;5.70;1.80;;;22.70;99.90;;;;;;5047524;28;20626;-29
2023/08/20 07:24:35;;;;;;;5.55;1.58;;;22.80;99.90;;;;;;5065471;28;20238;-24
2023/08/20 07:27:03;;;;;;;3.75;1.42;;;22.80;99.90;;;;;;5030778;28;20196;-24
2023/08/20 07:29:33;;;;;;;3.65;1.40;;;22.80;99.90;;;;;;5065373;28;20615;-24
2023/08/20 07:32:03;;;;;;;4.20;1.20;;;22.80;99.90;;;;;;5065777;28;20308;-24
2023/08/20 07:34:30;;;;;;;4.85;1.30;;;22.80;99.90;;;;;;5047868;28;20235;-24
2023/08/20 07:36:58;;;;;;;3.05;1.13;;;22.80;99.90;;;;;;5047443;28;20218;-25
2023/08/20 07:39:25;;;;;;;3.83;1.30;;;22.90;99.90;;;;;;5047387;28;20208;-24
2023/08/20 07:41:57;;;;;;;7.10;1.58;;;22.90;99.90;;;;;;5066048;28;20303;-24
2023/08/20 07:44:32;;;;;;;3.50;1.40;;;22.90;99.90;;;;;;5046918;28;20239;-24
2023/08/20 07:47:01;;;;;;;3.80;1.30;;;22.90;99.90;;;;;;5047164;28;20195;-24
2023/08/20 07:49:29;;;;;;;3.50;1.40;;;22.80;99.90;;;;;;5047411;28;20204;-24
2023/08/20 07:51:56;;;;;;;4.90;1.08;;;22.90;99.90;;;;;;5047541;28;20204;-24
2023/08/20 07:54:27;;;;;;;3.70;1.65;;;22.90;99.90;;;;;;5065324;28;20204;-32
2023/08/20 07:56:59;;;;;;;3.88;1.33;;;23.00;99.90;;;;;;5046980;28;20204;-32
2023/08/20 07:59:34;;;;;;;3.50;1.08;;;23.00;99.90;;;;;;5047603;28;20657;-32
2023/08/20 08:02:01;;;;;;;3.20;0.98;;;23.00;99.90;;;;;;5047282;28;20199;-32
2023/08/20 08:04:33;;;;;;;3.83;1.08;;;23.10;99.90;;;;;;5047273;28;20297;-32
2023/08/20 08:07:00;;;;;;;3.28;1.23;;;23.10;99.90;;;;;;5065295;28;20254;-32
2023/08/20 08:09:32;;;;;;;2.90;1.20;;;23.20;99.90;;;;;;5047773;28;20200;-32
2023/08/20 08:11:59;;;;;;;1.70;1.08;;;23.20;99.90;;;;;;5065479;28;20200;-32
2023/08/20 08:14:27;;;;;;;3.75;1.10;;;23.20;99.90;;;;;;5046867;28;20294;-32
2023/08/20 08:16:57;;;;;;;2.60;0.90;;;23.30;99.90;;;;;;5065062;28;20759;-32
2023/08/20 08:19:26;;;;;;;3.67;1.10;;;23.30;99.90;;;;;;5063780;28;20543;-32
2023/08/20 08:21:59;;;;;;;4.03;1.20;;;23.30;99.90;;;;;;5030590;28;20203;-32
2023/08/20 08:24:29;;;;;;;2.88;1.00;;;23.40;99.90;;;;;;5065078;28;20240;-24
2023/08/20 08:26:56;;;;;;;4.72;1.58;;;23.50;99.90;;;;;;5067486;28;20599;-24
2023/08/20 08:29:25;;;;;;;2.60;1.08;;;23.50;99.90;;;;;;5067193;28;20195;-24
2023/08/20 08:31:55;;;;;;;2.63;1.15;;;23.50;99.90;;;;;;5068579;28;20210;-24
2023/08/20 08:34:23;;;;;;;2.17;1.17;;;23.60;99.90;;;;;;5050612;28;20669;-25
2023/08/20 08:36:52;;;;;;;4.00;1.65;;;23.70;99.90;;;;;;5068167;28;20208;-25
2023/08/20 08:39:19;;;;;;;5.32;1.58;;;23.70;99.90;;;;;;5068430;28;20265;-25
2023/08/20 08:41:51;;;;;;;3.28;1.40;;;23.80;99.90;;;;;;5068071;28;20229;-25
2023/08/20 08:44:20;;;;;;;3.28;1.50;;;23.80;99.90;;;;;;5050332;28;20239;-25
2023/08/20 08:46:53;;;;;;;3.33;1.50;;;23.90;99.90;;;;;;5068223;28;20286;-25
2023/08/20 08:49:23;;;;;;;2.45;1.30;;;23.90;99.90;;;;;;5034121;28;20199;-25
2023/08/20 08:51:51;;;;;;;2.95;1.30;;;24.00;99.90;;;;;;5050047;28;20242;-25
2023/08/20 08:54:19;;;;;;;2.30;1.35;;;24.00;99.90;;;;;;5067941;28;20660;-25
2023/08/20 08:56:50;;;;;;;5.20;1.58;;;24.10;99.90;;;;;;5050192;28;20586;-25
2023/08/20 08:59:19;;;;;;;3.55;1.50;;;24.10;99.90;;;;;;5050292;28;20606;-26
2023/08/20 09:01:50;;;;;;;3.45;1.42;;;24.20;99.90;;;;;;5067879;28;20203;-25
2023/08/20 09:04:17;;;;;;;3.97;1.63;;;24.20;99.90;;;;;;5068193;28;20208;-25
2023/08/20 09:06:58;;;;;;;4.25;1.52;;;24.20;99.90;;;;;;5050638;28;20199;-25
2023/08/20 09:09:32;;;;;;;4.30;1.60;;;24.30;99.90;;;;;;5067676;28;20221;-25
2023/08/20 09:12:02;;;;;;;3.45;1.33;;;24.30;99.90;;;;;;5049718;28;20247;-25
2023/08/20 09:14:32;;;;;;;3.13;1.15;;;24.30;99.90;;;;;;5067782;28;20195;-25
2023/08/20 09:17:01;;;;;;;3.30;1.50;;;24.40;99.90;;;;;;5049531;28;20681;-25
2023/08/20 09:19:30;;;;;;;4.72;1.92;;;24.40;99.90;;;;;;5067765;28;20196;-25
2023/08/20 09:22:00;;;;;;;3.33;1.45;;;24.50;99.90;;;;;;5050628;28;20576;-25
2023/08/20 09:24:51;;;;;;;3.92;1.67;;;24.50;99.90;;;;;;5049332;28;20721;-25
2023/08/20 09:27:23;;;;;;;3.70;1.58;;;24.50;99.90;;;;;;5049991;28;20207;-25
2023/08/20 09:29:59;;;;;;;3.50;1.65;;;24.50;99.90;;;;;;5032836;28;20703;-25
2023/08/20 09:32:28;;;;;;;4.82;2.10;;;24.60;99.90;;;;;;5065725;28;20199;-25
2023/08/20 09:34:56;;;;;;;3.38;1.65;;;24.60;99.90;;;;;;5049032;28;20257;-25
2023/08/20 09:37:24;;;;;;;6.30;2.53;;;24.60;99.90;;;;;;5048320;28;20237;-25
2023/08/20 09:39:52;;;;;;;3.50;1.65;;;24.70;99.90;;;;;;5067027;28;20709;-25
2023/08/20 09:42:19;;;;;;;3.63;1.73;;;24.70;99.90;;;;;;5049353;28;20249;-25
2023/08/20 09:44:47;;;;;;;4.40;1.67;;;24.70;99.90;;;;;;5048739;28;20350;-25
2023/08/20 09:47:25;;;;;;;5.70;2.10;;;24.70;99.90;;;;;;5049564;28;20216;-25
2023/08/20 09:49:58;;;;;;;4.72;1.63;;;24.80;99.90;;;;;;5065975;28;20203;-25
2023/08/20 09:52:28;;;;;;;4.60;1.50;;;24.80;99.90;;;;;;5067269;28;20192;-25
2023/08/20 09:55:07;;;;;;;2.58;1.27;;;24.80;99.90;;;;;;5067050;28;20701;-25
2023/08/20 09:57:39;;;;;;;2.78;1.27;;;24.90;99.90;;;;;;5067367;28;20195;-25
2023/08/20 10:00:15;;;;;;;3.50;1.50;;;24.90;99.90;;;;;;5066887;28;20215;-25
2023/08/20 10:02:43;;;;;;;3.42;1.50;;;25.00;99.90;;;;;;5048679;28;20245;-33
2023/08/20 10:05:17;;;;;;;5.53;1.50;;;25.00;99.90;;;;;;5066399;28;20281;-32
2023/08/20 10:07:50;;;;;;;4.15;1.50;;;25.00;99.90;;;;;;5032622;28;20735;-33
2023/08/20 10:10:18;;;;;;;3.70;1.40;;;25.00;99.90;;;;;;5066214;28;20203;-33
2023/08/20 10:12:56;;;;;;;5.47;1.55;;;25.10;99.90;;;;;;5048981;28;20207;-32
2023/08/20 10:15:28;;;;;;;1.95;1.27;;;25.10;99.90;;;;;;5066663;28;20214;-32
2023/08/20 10:17:57;;;;;;;4.22;1.50;;;25.10;99.90;;;;;;5066246;28;20199;-33
2023/08/20 10:20:29;;;;;;;3.95;1.40;;;25.10;99.90;;;;;;5066574;28;20222;-33
2023/08/20 10:23:04;;;;;;;3.40;1.65;;;25.10;99.90;;;;;;5066158;28;20725;-33
2023/08/20 10:25:42;;;;;;;3.40;1.40;;;25.20;99.90;;;;;;5047896;28;20293;-32
2023/08/20 10:28:21;;;;;;;5.35;1.50;;;25.20;99.90;;;;;;5065979;28;20608;-32
2023/08/20 10:31:12;;;;;;;4.43;1.50;;;25.30;99.90;;;;;;5047928;28;20207;-33
2023/08/20 10:33:54;;;;;;;5.22;1.30;;;25.30;99.90;;;;;;5066513;28;20961;-34
2023/08/20 10:36:30;;;;;;;4.22;1.25;;;25.30;99.90;;;;;;5065970;28;20204;-35
2023/08/20 10:39:02;;;;;;;2.97;1.35;;;25.30;99.90;;;;;;5065860;28;20203;-34
2023/08/20 10:41:30;;;;;;;3.13;1.35;;;25.40;99.90;;;;;;5032274;28;20426;-33
2023/08/20 10:43:59;;;;;;;3.05;1.30;;;25.40;99.90;;;;;;5047488;28;20750;-33
2023/08/20 10:46:36;;;;;;;3.15;1.50;;;25.40;99.90;;;;;;5065638;28;20232;-32
2023/08/20 10:49:08;;;;;;;3.97;1.60;;;25.40;99.90;;;;;;5064945;28;20211;-32
2023/08/20 10:51:37;;;;;;;4.00;1.30;;;25.50;99.90;;;;;;5065909;28;20199;-33
2023/08/20 10:54:10;;;;;;;3.17;1.35;;;25.50;99.90;;;;;;5065569;28;20191;-32
2023/08/20 10:56:41;;;;;;;3.72;1.13;;;25.60;99.90;;;;;;5047727;28;20207;-32
2023/08/20 10:59:32;;;;;;;6.00;1.50;;;25.70;99.90;;;;;;5065735;28;20644;-32
2023/08/20 11:02:03;;;;;;;4.82;1.40;;;25.70;99.90;;;;;;5047451;28;20635;-32
2023/08/20 11:04:33;;;;;;;3.90;1.58;;;25.80;99.90;;;;;;5047566;28;20631;-32
2023/08/20 11:07:05;;;;;;;2.17;1.30;;;25.80;99.90;;;;;;5048211;28;20222;-32
2023/08/20 11:09:35;;;;;;;3.70;1.35;;;25.80;99.90;;;;;;5064698;28;20207;-32
2023/08/20 11:12:08;;;;;;;2.38;1.40;;;25.90;99.90;;;;;;5048137;28;20632;-32
2023/08/20 11:14:37;;;;;;;2.40;1.23;;;25.90;99.90;;;;;;5065387;28;20222;-32
2023/08/20 11:17:04;;;;;;;4.85;1.70;;;26.00;99.90;;;;;;5047126;28;20249;-32
2023/08/20 11:19:35;;;;;;;2.45;1.20;;;26.00;99.90;;;;;;5065234;28;20207;-31
2023/08/20 11:22:04;;;;;;;4.20;1.40;;;26.10;99.90;;;;;;5047978;28;20203;-32
2023/08/20 11:24:36;;;;;;;3.13;1.45;;;26.10;99.90;;;;;;5047191;28;20277;-32
2023/08/20 11:27:03;;;;;;;3.05;1.40;;;26.10;99.90;;;;;;5047757;28;20735;-32
2023/08/20 11:29:32;;;;;;;5.15;1.42;;;26.20;99.90;;;;;;5064999;28;20663;-32
2023/08/20 11:32:03;;;;;;;1.88;1.17;;;26.20;99.90;;;;;;5065222;28;20211;-32
2023/08/20 11:34:33;;;;;;;4.40;1.40;;;26.20;99.90;;;;;;5065150;28;20223;-32
2023/08/20 11:37:05;;;;;;;2.90;1.20;;;26.30;99.90;;;;;;5065143;28;20223;-32
2023/08/20 11:39:36;;;;;;;3.20;1.40;;;26.30;99.90;;;;;;5064576;28;20219;-32
2023/08/20 11:42:04;;;;;;;3.92;1.58;;;26.30;99.90;;;;;;5065070;28;20223;-32
2023/08/20 11:44:44;;;;;;;5.22;1.60;;;26.30;99.90;;;;;;5065363;28;20301;-32
2023/08/20 11:47:17;;;;;;;4.47;1.10;;;26.40;99.90;;;;;;5066133;28;20330;-25
2023/08/20 11:49:47;;;;;;;5.05;1.40;;;26.40;99.90;;;;;;5065189;28;20215;-25
2023/08/20 11:52:20;;;;;;;3.22;1.23;;;26.50;99.90;;;;;;5047047;28;20201;-24
2023/08/20 11:54:48;;;;;;;3.08;1.42;;;26.50;99.90;;;;;;5064997;28;20207;-24
2023/08/20 11:57:20;;;;;;;3.45;1.17;;;26.60;99.90;;;;;;5065000;28;20200;-24
2023/08/20 11:59:50;;;;;;;4.90;1.63;;;26.60;99.90;;;;;;5047963;28;20198;-24
2023/08/20 12:02:26;;;;;;;3.88;1.80;;;26.70;99.90;;;;;;5051228;28;20199;-25
2023/08/20 12:05:06;;;;;;;2.65;1.40;;;26.80;99.90;;;;;;5068663;28;20207;-25
2023/08/20 12:07:36;;;;;;;3.83;1.30;;;26.90;99.90;;;;;;5050667;28;20413;-25
2023/08/20 12:10:27;;;;;;;3.60;1.30;;;26.90;99.90;;;;;;5067247;28;20629;-25
2023/08/20 12:12:56;;;;;;;3.97;1.67;;;27.00;99.90;;;;;;5066792;28;20698;-24
2023/08/20 12:15:24;;;;;;;2.35;1.40;;;27.00;99.90;;;;;;5067058;28;20210;-24
2023/08/20 12:18:00;;;;;;;2.50;1.20;;;27.10;99.90;;;;;;5066879;28;20207;-24
2023/08/20 12:20:31;;;;;;;4.22;1.42;;;27.20;99.90;;;;;;5034038;28;20290;-24
2023/08/20 12:23:02;;;;;;;5.03;1.52;;;27.20;99.90;;;;;;5068649;28;20203;-24
2023/08/20 12:25:33;;;;;;;6.97;1.55;;;27.20;99.90;;;;;;5067038;28;20247;-25
2023/08/20 12:28:05;;;;;;;5.82;1.52;;;27.30;99.90;;;;;;5068395;28;20214;-24
2023/08/20 12:30:35;;;;;;;2.63;1.30;;;27.30;99.90;;;;;;5068606;28;20194;-33
2023/08/20 12:33:06;;;;;;;2.15;1.40;;;27.30;99.90;;;;;;5068288;28;20200;-32
2023/08/20 12:35:36;;;;;;;5.93;2.20;;;27.40;99.90;;;;;;5050433;28;20586;-32
2023/08/20 12:38:07;;;;;;;3.08;1.25;;;27.50;99.90;;;;;;5034573;28;20261;-32
2023/08/20 12:40:40;;;;;;;3.65;1.50;;;27.50;99.90;;;;;;5050654;28;20615;-32
2023/08/20 12:43:09;;;;;;;5.18;1.75;;;27.50;99.90;;;;;;5050062;28;20708;-32
2023/08/20 12:45:42;;;;;;;3.90;1.58;;;27.50;99.90;;;;;;5050378;28;20227;-32
2023/08/20 12:48:09;;;;;;;3.53;1.65;;;27.60;99.90;;;;;;5068002;28;20202;-32
2023/08/20 12:50:41;;;;;;;2.38;1.23;;;27.60;99.90;;;;;;5067406;28;20215;-32
2023/08/20 12:53:10;;;;;;;5.35;1.55;;;27.60;99.90;;;;;;5049850;28;20661;-32
2023/08/20 12:55:42;;;;;;;3.92;1.60;;;27.70;99.90;;;;;;5050215;28;20212;-24
2023/08/20 12:58:16;;;;;;;3.58;1.77;;;27.70;99.90;;;;;;5068043;28;20626;-24
2023/08/20 13:00:44;;;;;;;2.55;1.10;;;27.80;99.90;;;;;;5051547;28;20203;-32
2023/08/20 13:03:16;;;;;;;3.38;1.20;;;27.80;99.90;;;;;;5067882;28;20226;-32